sensor_id;sensor_type;location;lat;lon;timestamp;P1;durP1;ratioP1;P2;durP2;ratioP2
73733;SDS011;62039;50.000;9.064;2022-09-03T00:01:56;1.10;;;0.70;;
73733;SDS011;62039;50.000;9.064;2022-09-03T00:04:29;0.53;;;0.53;;
73733;SDS011;62039;50.000;9.064;2022-09-03T00:07:14;1.00;;;0.60;;
73733;SDS011;62039;50.000;9.064;2022-09-03T00:09:48;0.57;;;0.57;;
73733;SDS011;62039;50.000;9.064;2022-09-03T00:12:20;0.60;;;0.60;;
73733;SDS011;62039;50.000;9.064;2022-09-03T00:14:49;1.23;;;0.80;;
73733;SDS011;62039;50.000;9.064;2022-09-03T00:17:18;0.60;;;0.60;;
73733;SDS011;62039;50.000;9.064;2022-09-03T00:19:51;0.60;;;0.60;;
73733;SDS011;62039;50.000;9.064;2022-09-03T00:22:21;0.70;;;0.70;;
73733;SDS011;62039;50.000;9.064;2022-09-03T00:24:53;1.70;;;0.87;;
73733;SDS011;62039;50.000;9.064;2022-09-03T00:27:22;0.90;;;0.90;;
73733;SDS011;62039;50.000;9.064;2022-09-03T00:29:52;0.70;;;0.70;;
73733;SDS011;62039;50.000;9.064;2022-09-03T00:32:23;0.70;;;0.70;;
73733;SDS011;62039;50.000;9.064;2022-09-03T00:34:55;1.20;;;0.53;;
73733;SDS011;62039;50.000;9.064;2022-09-03T00:37:26;1.00;;;0.90;;
73733;SDS011;62039;50.000;9.064;2022-09-03T00:39:54;0.67;;;0.67;;
73733;SDS011;62039;50.000;9.064;2022-09-03T00:42:25;0.60;;;0.60;;
73733;SDS011;62039;50.000;9.064;2022-09-03T00:45:06;1.07;;;0.90;;
73733;SDS011;62039;50.000;9.064;2022-09-03T00:47:42;1.07;;;0.70;;
73733;SDS011;62039;50.000;9.064;2022-09-03T00:50:22;0.90;;;0.70;;
73733;SDS011;62039;50.000;9.064;2022-09-03T00:52:57;0.77;;;0.60;;
73733;SDS011;62039;50.000;9.064;2022-09-03T00:55:33;0.60;;;0.60;;
73733;SDS011;62039;50.000;9.064;2022-09-03T01:01:06;0.57;;;0.57;;
73733;SDS011;62039;50.000;9.064;2022-09-03T01:03:41;0.70;;;0.60;;
73733;SDS011;62039;50.000;9.064;2022-09-03T01:06:16;0.80;;;0.80;;
73733;SDS011;62039;50.000;9.064;2022-09-03T01:11:42;0.80;;;0.77;;
73733;SDS011;62039;50.000;9.064;2022-09-03T01:14:22;0.73;;;0.60;;
73733;SDS011;62039;50.000;9.064;2022-09-03T01:17:05;0.80;;;0.80;;
73733;SDS011;62039;50.000;9.064;2022-09-03T01:22:41;0.77;;;0.70;;
73733;SDS011;62039;50.000;9.064;2022-09-03T01:25:31;0.63;;;0.63;;
73733;SDS011;62039;50.000;9.064;2022-09-03T01:28:12;1.13;;;0.80;;
73733;SDS011;62039;50.000;9.064;2022-09-03T01:30:47;2.63;;;0.83;;
73733;SDS011;62039;50.000;9.064;2022-09-03T01:33:18;0.70;;;0.70;;
73733;SDS011;62039;50.000;9.064;2022-09-03T01:35:54;0.70;;;0.70;;
73733;SDS011;62039;50.000;9.064;2022-09-03T01:38:30;0.70;;;0.70;;
73733;SDS011;62039;50.000;9.064;2022-09-03T01:41:05;1.23;;;0.80;;
73733;SDS011;62039;50.000;9.064;2022-09-03T01:43:43;1.53;;;0.60;;
73733;SDS011;62039;50.000;9.064;2022-09-03T01:46:18;0.67;;;0.67;;
73733;SDS011;62039;50.000;9.064;2022-09-03T01:48:50;0.77;;;0.77;;
73733;SDS011;62039;50.000;9.064;2022-09-03T01:51:24;0.70;;;0.70;;
73733;SDS011;62039;50.000;9.064;2022-09-03T01:54:01;0.67;;;0.67;;
73733;SDS011;62039;50.000;9.064;2022-09-03T01:56:50;1.37;;;0.90;;
73733;SDS011;62039;50.000;9.064;2022-09-03T01:59:36;0.93;;;0.83;;
73733;SDS011;62039;50.000;9.064;2022-09-03T02:02:08;1.00;;;0.70;;
73733;SDS011;62039;50.000;9.064;2022-09-03T02:04:38;0.80;;;0.77;;
73733;SDS011;62039;50.000;9.064;2022-09-03T02:07:05;0.90;;;0.80;;
73733;SDS011;62039;50.000;9.064;2022-09-03T02:09:32;0.87;;;0.70;;
73733;SDS011;62039;50.000;9.064;2022-09-03T02:11:59;0.90;;;0.70;;
73733;SDS011;62039;50.000;9.064;2022-09-03T02:14:32;1.13;;;0.80;;
73733;SDS011;62039;50.000;9.064;2022-09-03T02:17:01;2.13;;;0.67;;
73733;SDS011;62039;50.000;9.064;2022-09-03T02:19:28;1.43;;;1.00;;
73733;SDS011;62039;50.000;9.064;2022-09-03T02:21:56;0.70;;;0.70;;
73733;SDS011;62039;50.000;9.064;2022-09-03T02:24:23;0.70;;;0.60;;
73733;SDS011;62039;50.000;9.064;2022-09-03T02:26:51;0.80;;;0.70;;
73733;SDS011;62039;50.000;9.064;2022-09-03T02:29:18;1.13;;;0.80;;
73733;SDS011;62039;50.000;9.064;2022-09-03T02:31:46;0.60;;;0.60;;
73733;SDS011;62039;50.000;9.064;2022-09-03T02:34:14;0.80;;;0.77;;
73733;SDS011;62039;50.000;9.064;2022-09-03T02:36:42;0.87;;;0.70;;
73733;SDS011;62039;50.000;9.064;2022-09-03T02:39:10;0.70;;;0.70;;
73733;SDS011;62039;50.000;9.064;2022-09-03T02:41:37;0.60;;;0.60;;
73733;SDS011;62039;50.000;9.064;2022-09-03T02:44:05;0.60;;;0.60;;
73733;SDS011;62039;50.000;9.064;2022-09-03T02:46:38;0.70;;;0.70;;
73733;SDS011;62039;50.000;9.064;2022-09-03T02:49:06;0.60;;;0.60;;
73733;SDS011;62039;50.000;9.064;2022-09-03T02:51:35;1.57;;;0.70;;
73733;SDS011;62039;50.000;9.064;2022-09-03T02:54:04;0.90;;;0.77;;
73733;SDS011;62039;50.000;9.064;2022-09-03T02:56:31;1.23;;;0.80;;
73733;SDS011;62039;50.000;9.064;2022-09-03T02:58:57;1.43;;;0.80;;
73733;SDS011;62039;50.000;9.064;2022-09-03T03:01:24;0.70;;;0.70;;
73733;SDS011;62039;50.000;9.064;2022-09-03T03:03:52;0.83;;;0.80;;
73733;SDS011;62039;50.000;9.064;2022-09-03T03:06:19;1.40;;;1.00;;
73733;SDS011;62039;50.000;9.064;2022-09-03T03:08:47;0.80;;;0.70;;
73733;SDS011;62039;50.000;9.064;2022-09-03T03:11:14;0.63;;;0.60;;
73733;SDS011;62039;50.000;9.064;2022-09-03T03:13:42;0.77;;;0.60;;
73733;SDS011;62039;50.000;9.064;2022-09-03T03:16:10;1.23;;;0.60;;
73733;SDS011;62039;50.000;9.064;2022-09-03T03:18:38;0.73;;;0.73;;
73733;SDS011;62039;50.000;9.064;2022-09-03T03:21:05;0.90;;;0.73;;
73733;SDS011;62039;50.000;9.064;2022-09-03T03:23:32;0.70;;;0.70;;
73733;SDS011;62039;50.000;9.064;2022-09-03T03:26:01;0.83;;;0.80;;
73733;SDS011;62039;50.000;9.064;2022-09-03T03:28:28;0.77;;;0.70;;
73733;SDS011;62039;50.000;9.064;2022-09-03T03:30:55;0.60;;;0.60;;
73733;SDS011;62039;50.000;9.064;2022-09-03T03:33:21;0.70;;;0.70;;
73733;SDS011;62039;50.000;9.064;2022-09-03T03:35:48;1.57;;;0.80;;
73733;SDS011;62039;50.000;9.064;2022-09-03T03:38:15;2.20;;;0.90;;
73733;SDS011;62039;50.000;9.064;2022-09-03T03:40:41;0.73;;;0.60;;
73733;SDS011;62039;50.000;9.064;2022-09-03T03:43:09;0.70;;;0.70;;
73733;SDS011;62039;50.000;9.064;2022-09-03T03:45:36;2.03;;;0.77;;
73733;SDS011;62039;50.000;9.064;2022-09-03T03:48:02;0.53;;;0.53;;
73733;SDS011;62039;50.000;9.064;2022-09-03T03:50:29;0.60;;;0.60;;
73733;SDS011;62039;50.000;9.064;2022-09-03T03:52:58;0.73;;;0.73;;
73733;SDS011;62039;50.000;9.064;2022-09-03T03:55:24;1.00;;;0.80;;
73733;SDS011;62039;50.000;9.064;2022-09-03T03:57:52;4.20;;;0.80;;
73733;SDS011;62039;50.000;9.064;2022-09-03T04:00:20;1.63;;;0.80;;
73733;SDS011;62039;50.000;9.064;2022-09-03T04:02:49;0.60;;;0.60;;
73733;SDS011;62039;50.000;9.064;2022-09-03T04:05:16;1.00;;;0.70;;
73733;SDS011;62039;50.000;9.064;2022-09-03T04:07:48;2.27;;;0.70;;
73733;SDS011;62039;50.000;9.064;2022-09-03T04:10:14;0.63;;;0.63;;
73733;SDS011;62039;50.000;9.064;2022-09-03T04:12:41;1.47;;;0.70;;
73733;SDS011;62039;50.000;9.064;2022-09-03T04:15:08;1.17;;;0.90;;
73733;SDS011;62039;50.000;9.064;2022-09-03T04:17:36;1.00;;;0.87;;
73733;SDS011;62039;50.000;9.064;2022-09-03T04:20:03;0.90;;;0.50;;
73733;SDS011;62039;50.000;9.064;2022-09-03T04:22:30;0.90;;;0.60;;
73733;SDS011;62039;50.000;9.064;2022-09-03T04:24:57;1.13;;;0.93;;
73733;SDS011;62039;50.000;9.064;2022-09-03T04:27:23;1.63;;;0.80;;
73733;SDS011;62039;50.000;9.064;2022-09-03T04:29:50;1.30;;;0.80;;
73733;SDS011;62039;50.000;9.064;2022-09-03T04:32:16;1.43;;;0.80;;
73733;SDS011;62039;50.000;9.064;2022-09-03T04:34:44;0.77;;;0.70;;
73733;SDS011;62039;50.000;9.064;2022-09-03T04:37:11;0.60;;;0.60;;
73733;SDS011;62039;50.000;9.064;2022-09-03T04:39:37;0.90;;;0.80;;
73733;SDS011;62039;50.000;9.064;2022-09-03T04:42:04;1.03;;;0.70;;
73733;SDS011;62039;50.000;9.064;2022-09-03T04:44:31;1.03;;;0.87;;
73733;SDS011;62039;50.000;9.064;2022-09-03T04:46:57;0.70;;;0.70;;
73733;SDS011;62039;50.000;9.064;2022-09-03T04:49:24;1.40;;;0.70;;
73733;SDS011;62039;50.000;9.064;2022-09-03T04:51:52;0.90;;;0.80;;
73733;SDS011;62039;50.000;9.064;2022-09-03T04:54:18;0.63;;;0.63;;
73733;SDS011;62039;50.000;9.064;2022-09-03T04:56:45;1.57;;;1.10;;
73733;SDS011;62039;50.000;9.064;2022-09-03T04:59:12;0.90;;;0.73;;
73733;SDS011;62039;50.000;9.064;2022-09-03T05:01:38;0.80;;;0.70;;
73733;SDS011;62039;50.000;9.064;2022-09-03T05:04:06;0.90;;;0.70;;
73733;SDS011;62039;50.000;9.064;2022-09-03T05:06:33;0.70;;;0.70;;
73733;SDS011;62039;50.000;9.064;2022-09-03T05:09:03;0.77;;;0.77;;
73733;SDS011;62039;50.000;9.064;2022-09-03T05:11:30;1.33;;;0.80;;
73733;SDS011;62039;50.000;9.064;2022-09-03T05:13:58;0.83;;;0.70;;
73733;SDS011;62039;50.000;9.064;2022-09-03T05:16:25;0.83;;;0.83;;
73733;SDS011;62039;50.000;9.064;2022-09-03T05:18:53;0.83;;;0.70;;
73733;SDS011;62039;50.000;9.064;2022-09-03T05:21:20;0.70;;;0.70;;
73733;SDS011;62039;50.000;9.064;2022-09-03T05:23:48;0.73;;;0.73;;
73733;SDS011;62039;50.000;9.064;2022-09-03T05:26:17;1.17;;;0.53;;
73733;SDS011;62039;50.000;9.064;2022-09-03T05:28:47;1.07;;;0.80;;
73733;SDS011;62039;50.000;9.064;2022-09-03T05:31:15;1.63;;;0.90;;
73733;SDS011;62039;50.000;9.064;2022-09-03T05:33:43;0.80;;;0.80;;
73733;SDS011;62039;50.000;9.064;2022-09-03T05:36:12;1.00;;;0.83;;
73733;SDS011;62039;50.000;9.064;2022-09-03T05:38:40;0.80;;;0.70;;
73733;SDS011;62039;50.000;9.064;2022-09-03T05:41:08;0.70;;;0.70;;
73733;SDS011;62039;50.000;9.064;2022-09-03T05:43:37;0.77;;;0.70;;
73733;SDS011;62039;50.000;9.064;2022-09-03T05:46:05;0.83;;;0.70;;
73733;SDS011;62039;50.000;9.064;2022-09-03T05:48:33;0.70;;;0.70;;
73733;SDS011;62039;50.000;9.064;2022-09-03T05:51:01;0.83;;;0.70;;
73733;SDS011;62039;50.000;9.064;2022-09-03T05:53:29;1.13;;;0.90;;
73733;SDS011;62039;50.000;9.064;2022-09-03T05:55:58;0.70;;;0.70;;
73733;SDS011;62039;50.000;9.064;2022-09-03T05:58:29;0.70;;;0.70;;
73733;SDS011;62039;50.000;9.064;2022-09-03T06:00:57;0.80;;;0.80;;
73733;SDS011;62039;50.000;9.064;2022-09-03T06:03:23;0.93;;;0.80;;
73733;SDS011;62039;50.000;9.064;2022-09-03T06:05:51;1.00;;;0.70;;
73733;SDS011;62039;50.000;9.064;2022-09-03T06:08:18;0.80;;;0.80;;
73733;SDS011;62039;50.000;9.064;2022-09-03T06:10:45;0.90;;;0.70;;
73733;SDS011;62039;50.000;9.064;2022-09-03T06:13:12;1.50;;;0.93;;
73733;SDS011;62039;50.000;9.064;2022-09-03T06:15:39;0.70;;;0.60;;
73733;SDS011;62039;50.000;9.064;2022-09-03T06:18:07;0.60;;;0.60;;
73733;SDS011;62039;50.000;9.064;2022-09-03T06:20:33;0.70;;;0.60;;
73733;SDS011;62039;50.000;9.064;2022-09-03T06:23:02;0.77;;;0.77;;
73733;SDS011;62039;50.000;9.064;2022-09-03T06:25:29;0.80;;;0.80;;
73733;SDS011;62039;50.000;9.064;2022-09-03T06:27:56;0.80;;;0.80;;
73733;SDS011;62039;50.000;9.064;2022-09-03T06:30:22;1.47;;;0.90;;
73733;SDS011;62039;50.000;9.064;2022-09-03T06:32:49;0.60;;;0.60;;
73733;SDS011;62039;50.000;9.064;2022-09-03T06:35:17;1.43;;;0.83;;
73733;SDS011;62039;50.000;9.064;2022-09-03T06:37:43;0.60;;;0.60;;
73733;SDS011;62039;50.000;9.064;2022-09-03T06:40:10;2.03;;;0.60;;
73733;SDS011;62039;50.000;9.064;2022-09-03T06:42:37;0.70;;;0.67;;
73733;SDS011;62039;50.000;9.064;2022-09-03T06:45:04;1.30;;;0.60;;
73733;SDS011;62039;50.000;9.064;2022-09-03T06:47:37;0.70;;;0.70;;
73733;SDS011;62039;50.000;9.064;2022-09-03T06:50:04;1.13;;;0.60;;
73733;SDS011;62039;50.000;9.064;2022-09-03T06:52:32;0.70;;;0.70;;
73733;SDS011;62039;50.000;9.064;2022-09-03T06:54:59;0.70;;;0.70;;
73733;SDS011;62039;50.000;9.064;2022-09-03T06:57:25;1.00;;;0.60;;
73733;SDS011;62039;50.000;9.064;2022-09-03T06:59:52;1.60;;;1.00;;
73733;SDS011;62039;50.000;9.064;2022-09-03T07:02:18;0.77;;;0.77;;
73733;SDS011;62039;50.000;9.064;2022-09-03T07:04:45;1.00;;;0.80;;
73733;SDS011;62039;50.000;9.064;2022-09-03T07:07:13;0.63;;;0.63;;
73733;SDS011;62039;50.000;9.064;2022-09-03T07:09:41;1.33;;;0.70;;
73733;SDS011;62039;50.000;9.064;2022-09-03T07:12:13;0.60;;;0.60;;
73733;SDS011;62039;50.000;9.064;2022-09-03T07:14:40;0.80;;;0.80;;
73733;SDS011;62039;50.000;9.064;2022-09-03T07:17:08;0.60;;;0.60;;
73733;SDS011;62039;50.000;9.064;2022-09-03T07:19:34;0.67;;;0.60;;
73733;SDS011;62039;50.000;9.064;2022-09-03T07:22:01;0.60;;;0.60;;
73733;SDS011;62039;50.000;9.064;2022-09-03T07:24:27;0.90;;;0.80;;
73733;SDS011;62039;50.000;9.064;2022-09-03T07:26:55;0.80;;;0.80;;
73733;SDS011;62039;50.000;9.064;2022-09-03T07:29:22;1.00;;;0.90;;
73733;SDS011;62039;50.000;9.064;2022-09-03T07:31:49;1.50;;;0.67;;
73733;SDS011;62039;50.000;9.064;2022-09-03T07:34:17;1.47;;;0.80;;
73733;SDS011;62039;50.000;9.064;2022-09-03T07:36:45;0.90;;;0.70;;
73733;SDS011;62039;50.000;9.064;2022-09-03T07:39:14;0.80;;;0.80;;
73733;SDS011;62039;50.000;9.064;2022-09-03T07:41:41;0.97;;;0.80;;
73733;SDS011;62039;50.000;9.064;2022-09-03T07:44:10;0.80;;;0.80;;
73733;SDS011;62039;50.000;9.064;2022-09-03T07:46:37;1.40;;;0.97;;
73733;SDS011;62039;50.000;9.064;2022-09-03T07:49:04;1.17;;;1.07;;
73733;SDS011;62039;50.000;9.064;2022-09-03T07:51:32;1.00;;;0.90;;
73733;SDS011;62039;50.000;9.064;2022-09-03T07:54:00;1.00;;;0.87;;
73733;SDS011;62039;50.000;9.064;2022-09-03T07:56:29;0.80;;;0.80;;
73733;SDS011;62039;50.000;9.064;2022-09-03T07:58:56;0.70;;;0.70;;
73733;SDS011;62039;50.000;9.064;2022-09-03T08:01:24;0.90;;;0.80;;
73733;SDS011;62039;50.000;9.064;2022-09-03T08:03:53;0.60;;;0.60;;
73733;SDS011;62039;50.000;9.064;2022-09-03T08:06:21;0.60;;;0.60;;
73733;SDS011;62039;50.000;9.064;2022-09-03T08:08:48;0.87;;;0.80;;
73733;SDS011;62039;50.000;9.064;2022-09-03T08:11:20;0.63;;;0.63;;
73733;SDS011;62039;50.000;9.064;2022-09-03T08:13:47;0.70;;;0.70;;
73733;SDS011;62039;50.000;9.064;2022-09-03T08:16:18;1.07;;;0.70;;
73733;SDS011;62039;50.000;9.064;2022-09-03T08:18:47;0.70;;;0.60;;
73733;SDS011;62039;50.000;9.064;2022-09-03T08:21:15;0.73;;;0.73;;
73733;SDS011;62039;50.000;9.064;2022-09-03T08:23:43;0.93;;;0.60;;
73733;SDS011;62039;50.000;9.064;2022-09-03T08:26:11;0.90;;;0.83;;
73733;SDS011;62039;50.000;9.064;2022-09-03T08:28:39;0.80;;;0.80;;
73733;SDS011;62039;50.000;9.064;2022-09-03T08:31:06;0.93;;;0.70;;
73733;SDS011;62039;50.000;9.064;2022-09-03T08:33:34;0.60;;;0.60;;
73733;SDS011;62039;50.000;9.064;2022-09-03T08:36:02;0.97;;;0.73;;
73733;SDS011;62039;50.000;9.064;2022-09-03T08:38:30;0.90;;;0.73;;
73733;SDS011;62039;50.000;9.064;2022-09-03T08:41:02;0.90;;;0.80;;
73733;SDS011;62039;50.000;9.064;2022-09-03T08:43:32;0.70;;;0.70;;
73733;SDS011;62039;50.000;9.064;2022-09-03T08:46:02;1.50;;;0.87;;
73733;SDS011;62039;50.000;9.064;2022-09-03T08:48:29;1.00;;;0.80;;
73733;SDS011;62039;50.000;9.064;2022-09-03T08:50:57;0.70;;;0.70;;
73733;SDS011;62039;50.000;9.064;2022-09-03T08:53:27;1.27;;;0.70;;
73733;SDS011;62039;50.000;9.064;2022-09-03T08:56:02;0.80;;;0.67;;
73733;SDS011;62039;50.000;9.064;2022-09-03T08:58:33;0.70;;;0.70;;
73733;SDS011;62039;50.000;9.064;2022-09-03T09:01:03;1.07;;;0.87;;
73733;SDS011;62039;50.000;9.064;2022-09-03T09:03:46;1.20;;;1.00;;
73733;SDS011;62039;50.000;9.064;2022-09-03T09:06:22;0.87;;;0.80;;
73733;SDS011;62039;50.000;9.064;2022-09-03T09:08:58;0.80;;;0.80;;
73733;SDS011;62039;50.000;9.064;2022-09-03T09:11:33;0.70;;;0.70;;
73733;SDS011;62039;50.000;9.064;2022-09-03T09:14:10;0.70;;;0.70;;
73733;SDS011;62039;50.000;9.064;2022-09-03T09:16:46;0.70;;;0.70;;
73733;SDS011;62039;50.000;9.064;2022-09-03T09:19:26;0.83;;;0.83;;
73733;SDS011;62039;50.000;9.064;2022-09-03T09:22:04;0.93;;;0.80;;
73733;SDS011;62039;50.000;9.064;2022-09-03T09:24:38;0.70;;;0.70;;
73733;SDS011;62039;50.000;9.064;2022-09-03T09:27:07;1.33;;;1.00;;
73733;SDS011;62039;50.000;9.064;2022-09-03T09:29:39;1.83;;;1.00;;
73733;SDS011;62039;50.000;9.064;2022-09-03T09:32:07;1.03;;;0.83;;
73733;SDS011;62039;50.000;9.064;2022-09-03T09:34:35;1.77;;;0.90;;
73733;SDS011;62039;50.000;9.064;2022-09-03T09:37:03;0.90;;;0.90;;
73733;SDS011;62039;50.000;9.064;2022-09-03T09:39:33;1.13;;;0.87;;
73733;SDS011;62039;50.000;9.064;2022-09-03T09:42:01;1.47;;;1.37;;
73733;SDS011;62039;50.000;9.064;2022-09-03T09:44:31;1.73;;;1.30;;
73733;SDS011;62039;50.000;9.064;2022-09-03T09:47:01;1.40;;;1.30;;
73733;SDS011;62039;50.000;9.064;2022-09-03T09:49:30;1.37;;;1.17;;
73733;SDS011;62039;50.000;9.064;2022-09-03T09:51:59;3.47;;;1.20;;
73733;SDS011;62039;50.000;9.064;2022-09-03T09:54:27;1.60;;;1.17;;
73733;SDS011;62039;50.000;9.064;2022-09-03T09:56:57;2.37;;;1.10;;
73733;SDS011;62039;50.000;9.064;2022-09-03T09:59:26;0.97;;;0.87;;
73733;SDS011;62039;50.000;9.064;2022-09-03T10:02:01;2.20;;;1.00;;
73733;SDS011;62039;50.000;9.064;2022-09-03T10:04:32;1.83;;;1.17;;
73733;SDS011;62039;50.000;9.064;2022-09-03T10:07:03;1.87;;;1.03;;
73733;SDS011;62039;50.000;9.064;2022-09-03T10:09:41;1.70;;;1.27;;
73733;SDS011;62039;50.000;9.064;2022-09-03T10:12:08;1.87;;;1.30;;
73733;SDS011;62039;50.000;9.064;2022-09-03T10:14:43;3.13;;;1.33;;
73733;SDS011;62039;50.000;9.064;2022-09-03T10:17:13;1.70;;;1.03;;
73733;SDS011;62039;50.000;9.064;2022-09-03T10:19:46;1.07;;;1.07;;
73733;SDS011;62039;50.000;9.064;2022-09-03T10:22:20;1.13;;;1.03;;
73733;SDS011;62039;50.000;9.064;2022-09-03T10:24:50;0.97;;;0.87;;
73733;SDS011;62039;50.000;9.064;2022-09-03T10:27:23;1.30;;;1.20;;
73733;SDS011;62039;50.000;9.064;2022-09-03T10:29:51;1.20;;;1.10;;
73733;SDS011;62039;50.000;9.064;2022-09-03T10:32:19;1.20;;;1.00;;
73733;SDS011;62039;50.000;9.064;2022-09-03T10:35:07;1.30;;;1.20;;
73733;SDS011;62039;50.000;9.064;2022-09-03T10:37:53;1.80;;;1.03;;
73733;SDS011;62039;50.000;9.064;2022-09-03T10:40:32;2.27;;;1.67;;
73733;SDS011;62039;50.000;9.064;2022-09-03T10:43:14;1.50;;;1.40;;
73733;SDS011;62039;50.000;9.064;2022-09-03T10:45:55;1.17;;;1.07;;
73733;SDS011;62039;50.000;9.064;2022-09-03T10:51:17;1.80;;;1.40;;
73733;SDS011;62039;50.000;9.064;2022-09-03T10:53:51;2.57;;;1.07;;
73733;SDS011;62039;50.000;9.064;2022-09-03T10:56:31;1.20;;;1.10;;
73733;SDS011;62039;50.000;9.064;2022-09-03T10:59:08;1.27;;;1.10;;
73733;SDS011;62039;50.000;9.064;2022-09-03T11:02:00;1.77;;;1.20;;
73733;SDS011;62039;50.000;9.064;2022-09-03T11:04:40;1.00;;;1.00;;
73733;SDS011;62039;50.000;9.064;2022-09-03T11:07:12;1.40;;;1.30;;
73733;SDS011;62039;50.000;9.064;2022-09-03T11:09:39;3.50;;;1.00;;
73733;SDS011;62039;50.000;9.064;2022-09-03T11:12:10;1.63;;;1.03;;
73733;SDS011;62039;50.000;9.064;2022-09-03T11:14:43;1.17;;;1.07;;
73733;SDS011;62039;50.000;9.064;2022-09-03T11:17:14;0.97;;;0.90;;
73733;SDS011;62039;50.000;9.064;2022-09-03T11:19:46;1.53;;;0.97;;
73733;SDS011;62039;50.000;9.064;2022-09-03T11:22:16;2.40;;;1.40;;
73733;SDS011;62039;50.000;9.064;2022-09-03T11:24:50;1.20;;;1.07;;
73733;SDS011;62039;50.000;9.064;2022-09-03T11:27:25;1.50;;;1.13;;
73733;SDS011;62039;50.000;9.064;2022-09-03T11:30:01;3.27;;;0.90;;
73733;SDS011;62039;50.000;9.064;2022-09-03T11:32:34;1.80;;;1.00;;
73733;SDS011;62039;50.000;9.064;2022-09-03T11:35:13;1.37;;;1.20;;
73733;SDS011;62039;50.000;9.064;2022-09-03T11:37:46;1.33;;;1.17;;
73733;SDS011;62039;50.000;9.064;2022-09-03T11:40:18;1.50;;;1.40;;
73733;SDS011;62039;50.000;9.064;2022-09-03T11:42:44;1.30;;;1.00;;
73733;SDS011;62039;50.000;9.064;2022-09-03T11:45:12;1.00;;;0.87;;
73733;SDS011;62039;50.000;9.064;2022-09-03T11:47:47;2.60;;;1.13;;
73733;SDS011;62039;50.000;9.064;2022-09-03T11:50:16;1.87;;;1.20;;
73733;SDS011;62039;50.000;9.064;2022-09-03T11:52:46;1.17;;;0.87;;
73733;SDS011;62039;50.000;9.064;2022-09-03T11:55:26;1.50;;;1.30;;
73733;SDS011;62039;50.000;9.064;2022-09-03T11:58:10;1.60;;;1.10;;
73733;SDS011;62039;50.000;9.064;2022-09-03T12:00:41;2.20;;;1.00;;
73733;SDS011;62039;50.000;9.064;2022-09-03T12:03:11;1.33;;;1.23;;
73733;SDS011;62039;50.000;9.064;2022-09-03T12:05:41;2.33;;;1.40;;
73733;SDS011;62039;50.000;9.064;2022-09-03T12:08:31;1.10;;;1.00;;
73733;SDS011;62039;50.000;9.064;2022-09-03T12:11:21;1.10;;;1.00;;
73733;SDS011;62039;50.000;9.064;2022-09-03T12:14:09;1.10;;;1.00;;
73733;SDS011;62039;50.000;9.064;2022-09-03T12:16:53;1.10;;;1.00;;
73733;SDS011;62039;50.000;9.064;2022-09-03T12:19:30;1.10;;;1.00;;
73733;SDS011;62039;50.000;9.064;2022-09-03T12:22:03;2.00;;;1.17;;
73733;SDS011;62039;50.000;9.064;2022-09-03T12:24:30;1.00;;;0.90;;
73733;SDS011;62039;50.000;9.064;2022-09-03T12:27:02;1.03;;;0.90;;
73733;SDS011;62039;50.000;9.064;2022-09-03T12:29:29;0.80;;;0.80;;
73733;SDS011;62039;50.000;9.064;2022-09-03T12:32:04;0.80;;;0.80;;
73733;SDS011;62039;50.000;9.064;2022-09-03T12:34:33;1.30;;;1.00;;
73733;SDS011;62039;50.000;9.064;2022-09-03T12:37:00;1.27;;;1.00;;
73733;SDS011;62039;50.000;9.064;2022-09-03T12:39:27;1.10;;;1.03;;
73733;SDS011;62039;50.000;9.064;2022-09-03T12:42:14;0.93;;;0.90;;
73733;SDS011;62039;50.000;9.064;2022-09-03T12:44:45;1.53;;;0.90;;
73733;SDS011;62039;50.000;9.064;2022-09-03T12:47:13;1.30;;;1.20;;
73733;SDS011;62039;50.000;9.064;2022-09-03T12:50:05;1.77;;;0.93;;
73733;SDS011;62039;50.000;9.064;2022-09-03T12:52:34;1.30;;;1.20;;
73733;SDS011;62039;50.000;9.064;2022-09-03T12:55:05;1.40;;;1.30;;
73733;SDS011;62039;50.000;9.064;2022-09-03T12:57:39;1.33;;;1.20;;
73733;SDS011;62039;50.000;9.064;2022-09-03T13:00:09;1.10;;;1.00;;
73733;SDS011;62039;50.000;9.064;2022-09-03T13:02:41;0.80;;;0.80;;
73733;SDS011;62039;50.000;9.064;2022-09-03T13:05:17;1.17;;;1.00;;
73733;SDS011;62039;50.000;9.064;2022-09-03T13:07:46;0.90;;;0.90;;
73733;SDS011;62039;50.000;9.064;2022-09-03T13:10:16;1.03;;;1.03;;
73733;SDS011;62039;50.000;9.064;2022-09-03T13:12:50;1.10;;;1.00;;
73733;SDS011;62039;50.000;9.064;2022-09-03T13:15:20;0.73;;;0.73;;
73733;SDS011;62039;50.000;9.064;2022-09-03T13:17:53;1.57;;;1.13;;
73733;SDS011;62039;50.000;9.064;2022-09-03T13:20:32;1.30;;;1.20;;
73733;SDS011;62039;50.000;9.064;2022-09-03T13:23:08;1.20;;;1.00;;
73733;SDS011;62039;50.000;9.064;2022-09-03T13:25:51;1.20;;;1.10;;
73733;SDS011;62039;50.000;9.064;2022-09-03T13:28:34;1.40;;;1.00;;
73733;SDS011;62039;50.000;9.064;2022-09-03T13:31:18;1.40;;;1.30;;
73733;SDS011;62039;50.000;9.064;2022-09-03T13:33:52;1.23;;;1.13;;
73733;SDS011;62039;50.000;9.064;2022-09-03T13:36:26;0.97;;;0.90;;
73733;SDS011;62039;50.000;9.064;2022-09-03T13:38:57;1.03;;;0.90;;
73733;SDS011;62039;50.000;9.064;2022-09-03T13:41:28;2.13;;;1.10;;
73733;SDS011;62039;50.000;9.064;2022-09-03T13:44:03;0.80;;;0.80;;
73733;SDS011;62039;50.000;9.064;2022-09-03T13:46:34;1.00;;;0.90;;
73733;SDS011;62039;50.000;9.064;2022-09-03T13:49:11;1.87;;;1.30;;
73733;SDS011;62039;50.000;9.064;2022-09-03T13:51:55;0.90;;;0.90;;
73733;SDS011;62039;50.000;9.064;2022-09-03T13:54:25;1.00;;;0.90;;
73733;SDS011;62039;50.000;9.064;2022-09-03T13:57:18;1.47;;;0.87;;
73733;SDS011;62039;50.000;9.064;2022-09-03T13:59:54;0.90;;;0.90;;
73733;SDS011;62039;50.000;9.064;2022-09-03T14:02:26;1.33;;;1.00;;
73733;SDS011;62039;50.000;9.064;2022-09-03T14:05:00;1.00;;;0.90;;
73733;SDS011;62039;50.000;9.064;2022-09-03T14:07:41;0.90;;;0.90;;
73733;SDS011;62039;50.000;9.064;2022-09-03T14:10:18;0.80;;;0.80;;
73733;SDS011;62039;50.000;9.064;2022-09-03T14:12:48;0.70;;;0.70;;
73733;SDS011;62039;50.000;9.064;2022-09-03T14:15:26;0.87;;;0.87;;
73733;SDS011;62039;50.000;9.064;2022-09-03T14:17:58;0.93;;;0.83;;
73733;SDS011;62039;50.000;9.064;2022-09-03T14:20:35;0.80;;;0.80;;
73733;SDS011;62039;50.000;9.064;2022-09-03T14:23:23;0.90;;;0.90;;
73733;SDS011;62039;50.000;9.064;2022-09-03T14:25:54;1.10;;;0.97;;
73733;SDS011;62039;50.000;9.064;2022-09-03T14:28:28;1.53;;;0.80;;
73733;SDS011;62039;50.000;9.064;2022-09-03T14:30:58;0.90;;;0.90;;
73733;SDS011;62039;50.000;9.064;2022-09-03T14:33:35;1.00;;;0.90;;
73733;SDS011;62039;50.000;9.064;2022-09-03T14:36:09;0.97;;;0.87;;
73733;SDS011;62039;50.000;9.064;2022-09-03T14:38:59;0.87;;;0.87;;
73733;SDS011;62039;50.000;9.064;2022-09-03T14:41:52;1.47;;;0.90;;
73733;SDS011;62039;50.000;9.064;2022-09-03T14:44:29;1.03;;;0.90;;
73733;SDS011;62039;50.000;9.064;2022-09-03T14:47:19;0.90;;;0.80;;
73733;SDS011;62039;50.000;9.064;2022-09-03T14:53:03;1.10;;;1.00;;
73733;SDS011;62039;50.000;9.064;2022-09-03T14:55:46;0.90;;;0.90;;
73733;SDS011;62039;50.000;9.064;2022-09-03T15:01:27;0.70;;;0.70;;
73733;SDS011;62039;50.000;9.064;2022-09-03T15:04:42;1.00;;;0.90;;
73733;SDS011;62039;50.000;9.064;2022-09-03T15:07:17;1.00;;;0.90;;
73733;SDS011;62039;50.000;9.064;2022-09-03T15:09:56;0.87;;;0.83;;
73733;SDS011;62039;50.000;9.064;2022-09-03T15:12:32;0.93;;;0.93;;
73733;SDS011;62039;50.000;9.064;2022-09-03T15:15:04;0.90;;;0.90;;
73733;SDS011;62039;50.000;9.064;2022-09-03T15:17:41;0.73;;;0.73;;
73733;SDS011;62039;50.000;9.064;2022-09-03T15:20:19;3.63;;;1.17;;
73733;SDS011;62039;50.000;9.064;2022-09-03T15:25:49;3.07;;;1.00;;
73733;SDS011;62039;50.000;9.064;2022-09-03T15:28:32;0.77;;;0.77;;
73733;SDS011;62039;50.000;9.064;2022-09-03T15:31:09;1.10;;;1.00;;
73733;SDS011;62039;50.000;9.064;2022-09-03T15:33:44;1.30;;;1.10;;
73733;SDS011;62039;50.000;9.064;2022-09-03T15:36:16;0.80;;;0.80;;